Time;durP1;ratioP1;P1;durP2;ratioP2;P2;SDS_P1;SDS_P2;PMS_P1;PMS_P2;Temp;Humidity;BMP_temperature;BMP_pressure;BME280_temperature;BME280_humidity;BME280_pressure;Samples;Min_cycle;Max_cycle;Signal;HPM_P1;HPM_P2
2023/09/07 00:02:10;;;;;;;;;7.00;6.40;;;;;17.37;63.55;100335.50;5095835;28;8842;-60
2023/09/07 00:04:38;;;;;;;;;7.00;6.40;;;;;17.34;62.96;100333.97;5095937;28;8841;-59
2023/09/07 00:07:06;;;;;;;;;6.60;6.40;;;;;17.30;63.92;100332.56;5095866;28;9535;-59
2023/09/07 00:09:34;;;;;;;;;6.00;6.00;;;;;17.28;63.10;100331.03;5095682;28;8822;-58
2023/09/07 00:12:02;;;;;;;;;4.40;4.40;;;;;17.24;63.64;100338.56;5095490;28;8829;-59
2023/09/07 00:14:29;;;;;;;;;3.40;3.20;;;;;17.19;63.32;100324.75;5095987;28;8896;-59
2023/09/07 00:16:58;;;;;;;;;6.00;4.00;;;;;17.13;63.14;100330.75;5095984;28;8834;-60
2023/09/07 00:19:25;;;;;;;;;3.20;3.20;;;;;17.09;63.84;100323.13;5095291;28;8907;-60
2023/09/07 00:28:05;;;;;;;;;7.75;6.75;;;;;16.91;63.83;100324.94;5096265;28;8787;-57
2023/09/07 00:30:33;;;;;;;;;8.00;8.00;;;;;16.85;64.46;100318.34;5095272;28;8834;-60
2023/09/07 00:33:01;;;;;;;;;7.00;6.50;;;;;16.82;64.17;100315.13;5095422;28;8826;-61
2023/09/07 00:35:28;;;;;;;;;6.25;6.00;;;;;16.79;64.03;100321.63;5094567;28;8829;-58
2023/09/07 00:37:56;;;;;;;;;9.00;7.00;;;;;16.78;64.31;100324.50;5094808;28;8826;-59
2023/09/07 00:40:25;;;;;;;;;4.00;3.00;;;;;16.77;64.12;100317.41;5095797;28;8846;-59
2023/09/07 00:42:52;;;;;;;;;6.75;6.75;;;;;16.75;64.04;100322.09;5095176;28;8826;-60
2023/09/07 00:45:20;;;;;;;;;6.25;5.50;;;;;16.74;64.40;100317.72;5094946;28;8838;-60
2023/09/07 00:47:48;;;;;;;;;4.80;4.80;;;;;16.71;63.88;100320.72;5095611;28;8814;-58
2023/09/07 00:50:16;;;;;;;;;9.50;9.00;;;;;16.69;64.60;100315.50;5094896;28;8830;-60
2023/09/07 00:52:44;;;;;;;;;11.75;9.00;;;;;16.70;64.27;100319.03;5094994;28;8822;-60
2023/09/07 00:55:11;;;;;;;;;17.00;15.00;;;;;16.75;64.21;100327.47;5094908;28;8894;-59
2023/09/07 00:57:42;;;;;;;;;15.75;15.00;;;;;16.75;63.67;100320.28;5095030;28;8874;-60
2023/09/07 01:00:10;;;;;;;;;11.00;10.00;;;;;16.77;63.95;100312.88;5095133;28;8838;-60
2023/09/07 01:02:38;;;;;;;;;21.00;18.25;;;;;16.80;63.68;100317.13;5094495;28;8836;-60
2023/09/07 01:05:06;;;;;;;;;23.25;21.50;;;;;16.80;64.44;100315.25;5094815;28;8862;-58
2023/09/07 01:07:33;;;;;;;;;14.25;13.50;;;;;16.82;63.93;100310.59;5095224;28;9535;-58
2023/09/07 01:10:02;;;;;;;;;18.50;18.00;;;;;16.82;63.68;100313.28;5094491;28;8814;-59
2023/09/07 01:12:30;;;;;;;;;19.25;18.25;;;;;16.81;63.55;100303.53;5094629;28;8927;-60
2023/09/07 01:14:58;;;;;;;;;10.25;8.00;;;;;16.82;63.69;100307.91;5095013;28;8836;-58
2023/09/07 01:17:25;;;;;;;;;23.25;18.75;;;;;16.82;64.01;100305.22;5094926;28;8830;-60
2023/09/07 01:19:53;;;;;;;;;21.00;19.00;;;;;16.83;63.65;100312.28;5094404;28;8834;-60
2023/09/07 01:22:22;;;;;;;;;18.00;16.50;;;;;16.82;64.02;100304.34;5094306;28;8830;-60
2023/09/07 01:24:50;;;;;;;;;18.00;18.00;;;;;16.80;63.55;100296.44;5093944;28;8837;-59
2023/09/07 01:27:17;;;;;;;;;12.00;12.00;;;;;16.78;64.29;100293.06;5094527;28;8834;-61
2023/09/07 01:29:45;;;;;;;;;9.25;9.00;;;;;16.74;64.01;100293.50;5094497;28;8818;-59
2023/09/07 01:32:13;;;;;;;;;14.00;13.00;;;;;16.71;64.09;100300.03;5094679;28;8834;-61
2023/09/07 01:34:41;;;;;;;;;16.00;15.00;;;;;16.67;63.85;100295.13;5094251;28;8837;-58
2023/09/07 01:37:09;;;;;;;;;13.25;12.50;;;;;16.62;63.91;100295.56;5094418;28;8927;-58
2023/09/07 01:39:37;;;;;;;;;9.75;9.00;;;;;16.55;64.29;100285.59;5094478;28;9496;-60
2023/09/07 01:42:04;;;;;;;;;9.00;7.50;;;;;16.51;64.33;100290.44;5094892;28;8834;-60
2023/09/07 01:44:32;;;;;;;;;9.75;9.00;;;;;16.46;64.93;100281.97;5094473;28;8814;-59
2023/09/07 01:46:59;;;;;;;;;9.25;8.00;;;;;16.44;64.56;100286.66;5097681;28;8850;-60
2023/09/07 01:49:27;;;;;;;;;9.00;9.00;;;;;16.41;64.78;100289.63;5098375;28;8841;-60
2023/09/07 01:51:55;;;;;;;;;13.75;11.50;;;;;16.40;64.64;100290.63;5097932;28;8840;-60
2023/09/07 01:54:22;;;;;;;;;9.50;9.50;;;;;16.36;64.78;100285.66;5097895;28;8822;-60
2023/09/07 01:56:50;;;;;;;;;7.00;7.00;;;;;16.34;64.74;100288.50;5097696;28;8842;-58
2023/09/07 01:59:18;;;;;;;;;7.50;7.00;;;;;16.32;64.45;100290.50;5098084;28;8810;-59
2023/09/07 02:01:45;;;;;;;;;6.00;6.00;;;;;16.29;64.94;100292.63;5098585;28;8830;-58
2023/09/07 02:04:13;;;;;;;;;6.75;6.75;;;;;16.27;64.52;100290.09;5098225;28;8914;-60
2023/09/07 02:06:41;;;;;;;;;6.50;6.50;;;;;16.25;65.00;100283.19;5097867;28;8826;-60
2023/09/07 02:09:09;;;;;;;;;6.50;6.50;;;;;16.22;65.17;100283.47;5097997;28;8846;-58
2023/09/07 02:11:36;;;;;;;;;9.75;9.00;;;;;16.18;64.81;100288.28;5098544;28;8822;-59
2023/09/07 02:14:04;;;;;;;;;6.25;5.50;;;;;16.17;65.22;100290.28;5097628;28;8837;-60
2023/09/07 02:16:32;;;;;;;;;5.50;4.00;;;;;16.16;65.43;100294.81;5097801;28;8931;-58
2023/09/07 02:19:00;;;;;;;;;9.00;7.00;;;;;16.15;65.10;100292.28;5098099;28;8830;-59
2023/09/07 02:21:28;;;;;;;;;5.00;4.00;;;;;16.14;65.20;100295.97;5097982;28;8858;-59
2023/09/07 02:23:55;;;;;;;;;9.75;8.00;;;;;16.13;65.20;100295.13;5097998;28;8837;-59
2023/09/07 02:26:23;;;;;;;;;8.75;8.75;;;;;16.10;65.15;100297.25;5098118;28;8834;-58
2023/09/07 02:28:50;;;;;;;;;12.00;12.00;;;;;16.09;65.11;100298.25;5097833;28;8845;-58
2023/09/07 02:31:18;;;;;;;;;12.00;10.00;;;;;16.06;65.42;100291.34;5099047;28;8845;-59
2023/09/07 02:33:46;;;;;;;;;9.50;8.00;;;;;16.06;65.51;100290.47;5097642;28;8826;-60
2023/09/07 02:36:13;;;;;;;;;9.50;8.00;;;;;16.05;65.17;100291.47;5097858;28;8842;-58
2023/09/07 02:38:41;;;;;;;;;10.50;9.50;;;;;16.01;65.08;100284.72;5097643;28;8894;-60
2023/09/07 02:41:09;;;;;;;;;7.50;7.50;;;;;15.96;65.34;100287.00;5097081;28;8818;-58
2023/09/07 02:43:37;;;;;;;;;11.50;10.75;;;;;15.96;65.17;100287.00;5097229;28;8830;-58
2023/09/07 02:46:04;;;;;;;;;7.00;6.75;;;;;15.95;65.63;100285.31;5097356;28;8852;-59
2023/09/07 02:48:32;;;;;;;;;12.00;10.00;;;;;15.92;65.35;100289.13;5097718;28;8818;-60
2023/09/07 02:51:00;;;;;;;;;7.50;7.50;;;;;15.90;65.33;100282.19;5096680;28;8818;-60
2023/09/07 02:53:28;;;;;;;;;7.00;7.00;;;;;15.87;65.23;100290.56;5097659;28;8830;-58
2023/09/07 02:55:55;;;;;;;;;11.00;10.00;;;;;15.84;65.95;100290.88;5097132;28;8955;-60
2023/09/07 02:58:23;;;;;;;;;8.00;6.50;;;;;15.83;65.50;100292.69;5096359;28;8944;-58
2023/09/07 03:00:51;;;;;;;;;9.00;8.50;;;;;15.79;65.27;100283.22;5096901;28;8844;-60
2023/09/07 03:03:19;;;;;;;;;8.00;8.00;;;;;15.77;65.56;100287.91;5097213;28;8956;-58
2023/09/07 03:05:47;;;;;;;;;5.50;5.00;;;;;15.76;65.60;100285.38;5097224;28;8845;-60
2023/09/07 03:08:14;;;;;;;;;8.00;8.00;;;;;15.73;65.74;100286.53;5096921;28;8830;-59
2023/09/07 03:10:43;;;;;;;;;8.00;7.50;;;;;15.73;65.92;100281.16;5096792;28;8809;-59
2023/09/07 03:13:10;;;;;;;;;9.50;9.00;;;;;15.73;65.61;100291.88;5096783;28;8857;-59
2023/09/07 03:15:38;;;;;;;;;9.50;9.50;;;;;15.72;65.94;100281.28;5097750;28;8830;-58
2023/09/07 03:18:06;;;;;;;;;6.00;6.00;;;;;15.72;66.00;100283.97;5096795;28;8834;-57
2023/09/07 03:20:34;;;;;;;;;11.50;9.25;;;;;15.72;66.05;100289.34;5096650;28;8841;-60
2023/09/07 03:23:02;;;;;;;;;8.75;7.00;;;;;15.70;66.09;100292.16;5097146;28;8817;-60
2023/09/07 03:25:30;;;;;;;;;9.75;9.75;;;;;15.70;65.60;100286.78;5097405;28;8818;-59
2023/09/07 03:27:58;;;;;;;;;9.75;9.50;;;;;15.67;65.51;100280.88;5096736;28;8842;-60
2023/09/07 03:30:25;;;;;;;;;12.00;10.50;;;;;15.66;65.77;100271.13;5096463;28;8822;-57
2023/09/07 03:32:53;;;;;;;;;9.75;9.00;;;;;15.65;65.91;100288.22;5096623;28;8822;-58
2023/09/07 03:35:21;;;;;;;;;6.00;6.00;;;;;15.61;66.36;100281.47;5096514;28;8842;-59
2023/09/07 03:37:48;;;;;;;;;7.00;7.00;;;;;15.58;66.17;100284.44;5096644;28;8818;-60
2023/09/07 03:40:16;;;;;;;;;6.50;6.50;;;;;15.52;66.34;100288.56;5096032;28;8865;-58
2023/09/07 03:42:45;;;;;;;;;6.75;6.50;;;;;15.47;66.49;100287.31;5096257;28;8841;-58
2023/09/07 03:45:13;;;;;;;;;9.50;9.50;;;;;15.43;66.20;100291.25;5095921;28;9499;-58
2023/09/07 03:47:41;;;;;;;;;9.00;9.00;;;;;15.39;66.26;100292.53;5096246;28;8895;-58
2023/09/07 03:50:08;;;;;;;;;10.00;8.50;;;;;15.36;66.54;100290.13;5095866;28;9484;-61
2023/09/07 03:52:36;;;;;;;;;7.00;7.00;;;;;15.31;66.57;100295.94;5095785;28;8887;-60
2023/09/07 03:55:03;;;;;;;;;3.00;3.00;;;;;15.28;67.08;100295.34;5095585;28;9546;-60
2023/09/07 03:57:31;;;;;;;;;8.00;8.00;;;;;15.24;66.69;100299.31;5095619;28;8845;-57
2023/09/07 03:59:59;;;;;;;;;12.00;9.75;;;;;15.20;66.65;100293.38;5096062;28;8822;-61
2023/09/07 04:02:26;;;;;;;;;6.75;6.75;;;;;15.17;66.70;100287.44;5095848;28;8838;-58
2023/09/07 04:04:55;;;;;;;;;6.00;6.00;;;;;15.15;66.77;100294.78;5095339;28;8830;-60
2023/09/07 04:07:22;;;;;;;;;5.50;4.00;;;;;15.12;66.88;100297.75;5095564;28;8826;-60
2023/09/07 04:09:50;;;;;;;;;9.75;8.75;;;;;15.11;66.69;100290.69;5095708;28;8841;-57
2023/09/07 04:12:18;;;;;;;;;7.50;6.50;;;;;15.08;66.74;100289.13;5095690;28;8818;-57
2023/09/07 04:14:45;;;;;;;;;6.00;5.00;;;;;15.09;66.77;100284.63;5095406;28;8822;-59
2023/09/07 04:17:13;;;;;;;;;8.50;8.50;;;;;15.10;66.57;100289.00;5095307;28;8976;-58
2023/09/07 04:19:40;;;;;;;;;9.75;9.75;;;;;15.10;67.12;100271.06;5095584;28;8840;-58
2023/09/07 04:22:08;;;;;;;;;9.25;9.25;;;;;15.10;66.62;100276.41;5095189;28;8832;-58
2023/09/07 04:24:36;;;;;;;;;9.25;7.50;;;;;15.09;66.72;100279.28;5095130;28;8822;-58
2023/09/07 04:27:03;;;;;;;;;7.50;6.75;;;;;15.10;66.44;100286.31;5095162;28;8864;-59
2023/09/07 04:29:31;;;;;;;;;12.50;9.00;;;;;15.11;66.55;100280.78;5095022;28;8830;-57
2023/09/07 04:31:59;;;;;;;;;12.25;12.25;;;;;15.13;66.94;100280.66;5094837;28;8810;-59
2023/09/07 04:34:26;;;;;;;;;17.50;17.50;;;;;15.14;66.43;100295.75;5094951;28;8829;-59
2023/09/07 04:36:54;;;;;;;;;14.50;14.50;;;;;15.14;66.69;100279.66;5095127;28;8856;-58
2023/09/07 04:39:22;;;;;;;;;7.50;7.50;;;;;15.13;66.75;100280.66;5095009;28;8903;-58
2023/09/07 04:41:49;;;;;;;;;9.75;9.50;;;;;15.12;66.19;100290.56;5094248;28;8838;-60
2023/09/07 04:44:17;;;;;;;;;10.00;9.00;;;;;15.11;66.50;100288.00;5094854;28;8818;-58
2023/09/07 04:46:44;;;;;;;;;9.00;7.50;;;;;15.11;66.80;100288.00;5094793;28;8846;-58
2023/09/07 04:49:12;;;;;;;;;12.25;12.00;;;;;15.12;66.51;100281.66;5094613;28;8850;-59
2023/09/07 04:51:40;;;;;;;;;13.50;10.50;;;;;15.15;66.42;100289.41;5094167;28;8818;-60
2023/09/07 04:54:08;;;;;;;;;15.00;13.75;;;;;15.17;66.30;100298.19;5094326;28;8826;-60
2023/09/07 04:56:35;;;;;;;;;11.50;10.00;;;;;15.20;66.30;100292.50;5094360;28;9530;-60
2023/09/07 04:59:03;;;;;;;;;15.50;13.00;;;;;15.26;66.38;100298.16;5093921;28;8857;-59
2023/09/07 05:01:32;;;;;;;;;12.00;12.00;;;;;15.34;65.83;100289.44;5093594;28;8850;-58
2023/09/07 05:04:01;;;;;;;;;11.50;11.00;;;;;15.38;65.90;100297.03;5093627;28;8822;-58
2023/09/07 05:06:29;;;;;;;;;15.00;15.00;;;;;15.38;65.77;100293.50;5093426;28;8830;-60
2023/09/07 05:08:57;;;;;;;;;9.00;9.00;;;;;15.38;66.14;100293.50;5093831;28;8834;-60
2023/09/07 05:11:24;;;;;;;;;12.75;12.50;;;;;15.39;65.74;100298.75;5093690;28;8830;-59
2023/09/07 05:13:52;;;;;;;;;12.00;12.00;;;;;15.39;66.15;100300.59;5095072;28;8826;-59
2023/09/07 05:16:20;;;;;;;;;9.75;9.00;;;;;15.38;66.57;100293.50;5094657;28;8838;-58
2023/09/07 05:18:48;;;;;;;;;9.25;9.25;;;;;15.38;66.10;100298.88;5093843;28;9491;-59
2023/09/07 05:21:15;;;;;;;;;9.50;9.25;;;;;15.42;65.81;100293.09;5093107;28;8874;-59
2023/09/07 05:23:43;;;;;;;;;12.00;12.00;;;;;15.47;65.85;100298.03;5093779;28;8830;-57
2023/09/07 05:26:11;;;;;;;;;11.00;10.00;;;;;15.55;65.98;100295.47;5093543;28;8845;-58
2023/09/07 05:28:39;;;;;;;;;9.50;9.00;;;;;15.60;65.36;100298.53;5094078;28;8918;-58
2023/09/07 05:31:07;;;;;;;;;9.25;8.25;;;;;15.67;65.15;100303.22;5093727;28;8814;-59
2023/09/07 05:33:35;;;;;;;;;9.50;9.50;;;;;15.73;65.62;100304.47;5093786;28;8849;-59
2023/09/07 05:36:05;;;;;;;;;12.50;10.00;;;;;15.81;65.09;100304.56;5094095;28;8829;-58
2023/09/07 05:38:32;;;;;;;;;9.25;9.25;;;;;15.86;65.06;100307.69;5093309;28;8846;-59
2023/09/07 05:41:01;;;;;;;;;10.25;10.25;;;;;15.90;65.28;100296.50;5093259;28;8863;-60
2023/09/07 05:43:28;;;;;;;;;9.50;8.50;;;;;15.98;64.50;100301.13;5093508;28;8861;-57
2023/09/07 05:45:56;;;;;;;;;8.75;7.50;;;;;16.04;64.71;100300.53;5093455;28;8838;-58
2023/09/07 05:48:23;;;;;;;;;10.50;9.75;;;;;16.10;64.45;100299.94;5093208;28;8834;-58
2023/09/07 05:50:51;;;;;;;;;8.00;7.00;;;;;16.15;64.66;100305.72;5092436;28;8834;-57
2023/09/07 05:53:19;;;;;;;;;8.00;7.00;;;;;16.21;64.77;100305.97;5092986;28;8830;-57
2023/09/07 05:55:47;;;;;;;;;9.00;8.50;;;;;16.28;64.50;100297.19;5093239;28;8838;-59
2023/09/07 05:58:15;;;;;;;;;9.75;9.75;;;;;16.39;64.23;100304.19;5093035;28;8829;-59
2023/09/07 06:00:43;;;;;;;;;10.75;10.25;;;;;16.47;63.61;100297.09;5093017;28;8975;-57
2023/09/07 06:03:11;;;;;;;;;11.00;10.00;;;;;16.60;63.86;100289.50;5092101;28;8974;-58
2023/09/07 06:05:39;;;;;;;;;10.00;10.00;;;;;16.71;63.27;100297.34;5092516;28;8842;-57
2023/09/07 06:08:07;;;;;;;;;12.50;11.00;;;;;16.81;63.10;100302.66;5092533;28;8931;-57
2023/09/07 06:10:35;;;;;;;;;10.50;10.50;;;;;16.88;63.01;100304.59;5092346;28;8856;-57
2023/09/07 06:13:03;;;;;;;;;6.75;6.50;;;;;16.98;62.76;100305.38;5093224;28;8830;-57
2023/09/07 06:15:31;;;;;;;;;10.00;9.00;;;;;17.12;63.26;100312.91;5093130;28;8834;-58
2023/09/07 06:17:59;;;;;;;;;13.00;13.00;;;;;17.27;62.83;100310.50;5092988;28;8838;-59
2023/09/07 06:20:27;;;;;;;;;13.00;10.00;;;;;17.42;62.41;100304.44;5092297;28;8837;-57
2023/09/07 06:22:55;;;;;;;;;12.00;10.00;;;;;17.52;62.04;100310.56;5092377;28;8838;-57
2023/09/07 06:25:23;;;;;;;;;9.40;9.00;;;;;17.66;61.89;100304.63;5093448;28;8858;-56
2023/09/07 06:27:50;;;;;;;;;12.40;12.20;;;;;17.73;61.87;100303.00;5092099;28;8853;-57
2023/09/07 06:30:18;;;;;;;;;8.60;8.60;;;;;17.79;61.83;100301.50;5092296;28;8836;-60
2023/09/07 06:32:47;;;;;;;;;9.60;7.00;;;;;17.86;61.97;100303.41;5093528;28;8968;-58
2023/09/07 06:35:15;;;;;;;;;10.00;10.00;;;;;17.94;61.47;100306.16;5096728;28;8842;-57
2023/09/07 06:37:43;;;;;;;;;11.60;11.60;;;;;18.03;61.62;100305.19;5096712;28;9566;-60
2023/09/07 06:40:11;;;;;;;;;11.80;11.20;;;;;18.11;61.22;100304.38;5096304;28;8972;-56
2023/09/07 06:42:39;;;;;;;;;10.00;9.20;;;;;18.21;61.53;100311.34;5095991;28;8826;-58
2023/09/07 06:45:07;;;;;;;;;11.80;11.20;;;;;18.31;61.52;100317.50;5096347;28;8826;-57
2023/09/07 06:47:35;;;;;;;;;12.00;12.00;;;;;18.42;60.97;100313.63;5096067;28;8876;-57
2023/09/07 06:50:04;;;;;;;;;12.20;10.40;;;;;18.51;60.88;100315.38;5095508;28;8833;-57
2023/09/07 06:52:31;;;;;;;;;11.00;9.60;;;;;18.61;60.40;100313.38;5095856;28;8837;-57
2023/09/07 06:54:59;;;;;;;;;16.00;15.20;;;;;18.74;60.79;100317.28;5095827;28;8833;-58
2023/09/07 06:57:27;;;;;;;;;12.40;12.00;;;;;18.88;60.52;100316.66;5096011;28;8848;-58
2023/09/07 06:59:54;;;;;;;;;13.40;13.00;;;;;19.04;60.02;100318.56;5096272;28;8830;-58
2023/09/07 07:02:23;;;;;;;;;11.20;10.00;;;;;19.19;60.35;100323.16;5096145;28;8860;-57
2023/09/07 07:04:51;;;;;;;;;15.80;12.80;;;;;19.31;59.93;100320.97;5096249;28;8841;-57
2023/09/07 07:07:19;;;;;;;;;9.20;7.60;;;;;19.46;59.39;100314.72;5096567;28;8841;-58
2023/09/07 07:09:47;;;;;;;;;9.40;9.40;;;;;19.61;59.08;100317.59;5096328;28;8822;-57
2023/09/07 07:12:15;;;;;;;;;12.80;12.00;;;;;19.75;59.10;100331.25;5095191;28;8845;-58
2023/09/07 07:14:43;;;;;;;;;3.00;3.00;;;;;19.89;59.12;100325.13;5095332;28;8833;-58
2023/09/07 07:17:10;;;;;;;;;10.20;9.60;;;;;20.03;58.67;100326.31;5095692;28;8834;-58
2023/09/07 07:19:38;;;;;;;;;10.40;10.00;;;;;20.16;58.44;100313.13;5095399;28;9527;-57
2023/09/07 07:22:06;;;;;;;;;13.80;13.20;;;;;20.28;58.71;100312.56;5095149;28;8852;-58
2023/09/07 07:24:34;;;;;;;;;11.80;11.00;;;;;20.41;58.33;100312.00;5094530;28;8850;-59
2023/09/07 07:27:03;;;;;;;;;13.40;13.00;;;;;20.53;58.33;100310.59;5095116;28;8837;-58
2023/09/07 07:29:31;;;;;;;;;10.00;10.00;;;;;20.64;57.76;100305.63;5095566;28;8841;-57
2023/09/07 07:32:00;;;;;;;;;13.80;11.20;;;;;20.77;57.84;100314.03;5095516;28;8829;-58
2023/09/07 07:34:28;;;;;;;;;6.00;6.00;;;;;20.91;57.64;100316.00;5094983;28;8834;-58
2023/09/07 07:36:55;;;;;;;;;10.80;10.40;;;;;21.03;57.58;100315.41;5095185;28;8910;-58
2023/09/07 07:39:23;;;;;;;;;7.00;7.00;;;;;21.16;57.50;100310.25;5096011;28;8981;-59
2023/09/07 07:41:51;;;;;;;;;12.00;11.00;;;;;21.28;56.83;100316.09;5095851;28;8845;-58
2023/09/07 07:44:19;;;;;;;;;10.20;9.80;;;;;21.39;56.85;100308.38;5094224;28;8868;-58
2023/09/07 07:46:47;;;;;;;;;15.20;11.20;;;;;21.48;56.50;100309.97;5095184;28;8838;-57
2023/09/07 07:49:15;;;;;;;;;11.40;10.40;;;;;21.58;56.40;100315.16;5094383;28;8984;-57
2023/09/07 07:51:43;;;;;;;;;7.40;7.00;;;;;21.71;56.76;100310.00;5094271;28;10116;-58
2023/09/07 07:54:11;;;;;;;;;10.20;9.40;;;;;21.81;56.20;100313.28;5094150;28;8826;-58
2023/09/07 07:56:39;;;;;;;;;12.00;11.00;;;;;21.91;56.34;100313.84;5094865;28;8859;-58
2023/09/07 07:59:09;;;;;;;;;10.80;9.40;;;;;22.02;56.35;100307.97;5094774;28;8953;-58
2023/09/07 08:01:37;;;;;;;;;11.40;11.00;;;;;22.15;56.21;100310.91;5094197;28;8830;-58
2023/09/07 08:04:05;;;;;;;;;10.60;9.00;;;;;22.30;56.02;100306.31;5094363;28;8959;-58
2023/09/07 08:06:34;;;;;;;;;11.40;9.00;;;;;22.47;55.58;100305.09;5093296;28;9264;-58
2023/09/07 08:09:02;;;;;;;;;12.40;12.20;;;;;22.60;55.23;100302.53;5094130;28;8830;-58
2023/09/07 08:11:31;;;;;;;;;14.80;14.80;;;;;22.73;55.27;100300.00;5096193;28;9561;-59
2023/09/07 08:13:58;;;;;;;;;8.40;8.40;;;;;22.86;55.32;100300.16;5094560;28;8825;-57
2023/09/07 08:16:26;;;;;;;;;12.40;11.60;;;;;23.00;54.80;100301.97;5094884;28;8842;-58
2023/09/07 08:18:54;;;;;;;;;11.80;10.20;;;;;23.16;54.63;100299.03;5095085;28;8822;-58
2023/09/07 08:21:22;;;;;;;;;11.80;11.20;;;;;23.31;54.33;100299.81;5094749;28;8806;-58
2023/09/07 08:23:52;;;;;;;;;9.00;8.20;;;;;23.48;53.95;100298.50;5094676;28;8968;-58
2023/09/07 08:26:20;;;;;;;;;11.00;10.60;;;;;23.66;54.23;100296.16;5094013;28;8818;-59
2023/09/07 08:28:49;;;;;;;;;12.80;12.20;;;;;23.84;54.08;100304.69;5094196;28;8825;-58
2023/09/07 08:31:21;;;;;;;;;12.80;12.00;;;;;24.05;53.22;100299.22;5093824;28;8830;-58
2023/09/07 08:33:51;;;;;;;;;10.80;10.00;;;;;24.26;53.56;100294.50;5093675;28;8837;-58
2023/09/07 08:36:22;;;;;;;;;12.80;12.80;;;;;24.48;52.96;100295.25;5094027;28;8822;-58
2023/09/07 08:38:50;;;;;;;;;9.20;8.80;;;;;24.67;52.55;100300.00;5094026;28;8829;-58
2023/09/07 08:41:17;;;;;;;;;11.40;9.00;;;;;24.86;52.23;100297.34;5093723;28;8845;-58
2023/09/07 08:43:46;;;;;;;;;10.00;10.00;;;;;25.05;51.91;100295.72;5094110;28;8868;-58
2023/09/07 08:46:14;;;;;;;;;11.00;10.80;;;;;25.21;51.89;100298.03;5093398;28;8849;-58
2023/09/07 08:48:42;;;;;;;;;10.40;9.00;;;;;25.36;51.67;100299.59;5093498;28;8965;-58
2023/09/07 08:51:12;;;;;;;;;11.00;10.20;;;;;25.49;51.63;100282.38;5092867;28;8837;-58
2023/09/07 08:53:40;;;;;;;;;9.40;9.20;;;;;25.63;51.15;100293.06;5093041;28;8911;-58
2023/09/07 08:56:10;;;;;;;;;10.60;10.60;;;;;25.76;51.27;100285.75;5092231;28;9588;-58
2023/09/07 08:58:38;;;;;;;;;9.40;7.60;;;;;25.91;50.54;100283.66;5093206;28;8869;-58
2023/09/07 09:01:05;;;;;;;;;11.20;10.00;;;;;26.04;50.28;100289.09;5093504;28;8854;-58
2023/09/07 09:03:35;;;;;;;;;7.60;7.60;;;;;26.18;49.97;100285.28;5092913;28;8830;-60
2023/09/07 09:06:03;;;;;;;;;10.40;10.40;;;;;26.28;50.57;100293.84;5093061;28;8927;-61
2023/09/07 09:08:31;;;;;;;;;9.60;8.40;;;;;26.41;49.95;100288.38;5091753;28;8826;-58
2023/09/07 09:11:00;;;;;;;;;8.60;8.40;;;;;26.56;50.21;100280.78;5092325;28;8846;-58
2023/09/07 09:13:28;;;;;;;;;8.20;7.40;;;;;26.69;49.80;100283.47;5092485;28;8833;-58
2023/09/07 09:15:56;;;;;;;;;9.40;9.40;;;;;26.80;49.41;100281.94;5092941;28;8857;-60
2023/09/07 09:18:25;;;;;;;;;9.00;8.40;;;;;26.93;49.70;100287.34;5092358;28;8841;-59
2023/09/07 09:20:54;;;;;;;;;7.80;7.20;;;;;27.04;49.05;100286.63;5092835;28;9479;-60
2023/09/07 09:23:21;;;;;;;;;9.40;9.20;;;;;27.19;48.82;100284.47;5091791;28;8872;-59
2023/09/07 09:25:49;;;;;;;;;9.20;9.00;;;;;27.42;48.32;100280.09;5092025;28;8849;-60
2023/09/07 09:28:17;;;;;;;;;11.40;11.00;;;;;27.64;48.43;100283.28;5092448;28;9495;-59
2023/09/07 09:30:45;;;;;;;;;9.40;8.80;;;;;27.78;47.95;100285.72;5092601;28;8849;-59
2023/09/07 09:33:12;;;;;;;;;8.20;8.00;;;;;27.89;48.25;100286.88;5092895;28;8828;-61
2023/09/07 09:35:40;;;;;;;;;12.80;11.40;;;;;27.96;47.87;100287.66;5093437;28;9742;-60
2023/09/07 09:38:08;;;;;;;;;9.20;8.40;;;;;28.01;47.59;100285.09;5094226;28;8980;-59
2023/09/07 09:40:36;;;;;;;;;9.80;8.80;;;;;27.99;47.68;100282.56;5094239;28;8865;-61
2023/09/07 09:43:04;;;;;;;;;8.20;7.80;;;;;27.98;48.14;100285.56;5090851;28;8966;-59
2023/09/07 09:45:35;;;;;;;;;10.80;9.20;;;;;27.98;48.11;100286.38;5091549;28;8841;-59
2023/09/07 09:48:03;;;;;;;;;12.20;11.80;;;;;28.03;48.11;100285.69;5090794;28;8925;-59
2023/09/07 09:50:31;;;;;;;;;9.80;9.00;;;;;28.22;47.66;100273.72;5092751;28;8837;-60
2023/09/07 09:52:59;;;;;;;;;13.40;12.00;;;;;28.54;47.27;100276.09;5092751;28;8853;-60
2023/09/07 09:55:27;;;;;;;;;9.00;9.00;;;;;28.88;46.54;100267.19;5092573;28;8867;-60
2023/09/07 09:57:57;;;;;;;;;9.00;8.20;;;;;29.41;45.89;100259.06;5092904;28;8833;-59
2023/09/07 10:00:27;;;;;;;;;9.00;8.80;;;;;30.21;44.84;100261.91;5092605;28;8925;-60
2023/09/07 10:02:55;;;;;;;;;11.00;11.00;;;;;31.14;43.65;100260.56;5093505;28;8863;-59
2023/09/07 10:05:23;;;;;;;;;11.20;11.20;;;;;32.08;42.36;100258.63;5093037;28;8975;-60
2023/09/07 10:07:53;;;;;;;;;11.00;11.00;;;;;32.93;40.96;100256.22;5095070;28;8841;-60
2023/09/07 10:10:21;;;;;;;;;10.00;9.80;;;;;33.72;40.00;100249.78;5096148;28;8830;-60
2023/09/07 10:12:49;;;;;;;;;10.20;8.80;;;;;34.40;39.35;100252.50;5095875;28;8857;-60
2023/09/07 10:15:17;;;;;;;;;6.60;6.60;;;;;34.96;39.01;100251.66;5097473;28;8838;-59
2023/09/07 10:17:49;;;;;;;;;12.60;10.80;;;;;35.40;38.18;100250.13;5097101;28;8840;-60
2023/09/07 10:20:18;;;;;;;;;10.40;9.60;;;;;35.84;38.15;100246.53;5096428;28;9600;-59
2023/09/07 10:22:46;;;;;;;;;9.00;8.40;;;;;36.21;37.86;100249.81;5096592;28;8845;-60
2023/09/07 10:25:14;;;;;;;;;8.60;8.60;;;;;36.54;37.42;100230.56;5095977;28;8850;-61
2023/09/07 10:27:42;;;;;;;;;9.80;9.00;;;;;36.86;36.77;100232.94;5095984;28;8826;-60
2023/09/07 10:30:10;;;;;;;;;10.00;10.00;;;;;37.02;37.03;100229.75;5095455;28;8830;-61
2023/09/07 10:32:38;;;;;;;;;11.00;10.80;;;;;37.12;37.09;100231.69;5096102;28;8841;-60
2023/09/07 10:35:07;;;;;;;;;9.20;9.00;;;;;36.79;37.70;100233.22;5095957;28;8834;-60
2023/09/07 10:37:35;;;;;;;;;13.00;12.00;;;;;36.31;38.68;100239.53;5096351;28;8844;-60
2023/09/07 10:40:04;;;;;;;;;8.80;8.40;;;;;35.79;39.45;100229.06;5096485;28;8977;-60
2023/09/07 10:42:33;;;;;;;;;13.40;12.20;;;;;35.43;40.27;100231.00;5096062;28;8834;-60
2023/09/07 10:45:01;;;;;;;;;11.20;10.60;;;;;35.08;39.97;100232.84;5096296;28;8849;-60
2023/09/07 10:47:29;;;;;;;;;10.20;9.20;;;;;34.92;40.08;100232.00;5095546;28;8842;-59
2023/09/07 10:49:56;;;;;;;;;11.00;10.00;;;;;34.84;40.31;100231.69;5095664;28;8858;-59
2023/09/07 10:52:24;;;;;;;;;9.60;9.40;;;;;34.73;40.52;100227.22;5095372;28;8837;-60
2023/09/07 10:54:52;;;;;;;;;8.20;8.00;;;;;34.71;40.56;100223.84;5095369;28;8836;-59
2023/09/07 10:57:20;;;;;;;;;12.40;11.80;;;;;34.91;40.61;100230.34;5095354;28;8964;-59
2023/09/07 10:59:48;;;;;;;;;12.00;11.60;;;;;35.10;40.20;100225.94;5095392;28;8841;-59
2023/09/07 11:02:16;;;;;;;;;11.40;11.00;;;;;35.06;40.37;100221.22;5094829;28;8860;-60
2023/09/07 11:04:44;;;;;;;;;11.80;11.80;;;;;34.94;40.71;100215.94;5094408;28;9523;-60
2023/09/07 11:07:17;;;;;;;;;9.60;9.00;;;;;34.74;40.60;100207.56;5094975;28;8845;-60
2023/09/07 11:09:45;;;;;;;;;11.40;11.40;;;;;34.60;40.49;100208.31;5095154;28;9757;-60
2023/09/07 11:12:13;;;;;;;;;13.00;11.40;;;;;34.64;40.50;100207.50;5094939;28;8987;-60
2023/09/07 11:14:41;;;;;;;;;11.80;11.40;;;;;34.91;40.70;100213.72;5095441;28;8848;-59
2023/09/07 11:17:10;;;;;;;;;10.80;10.40;;;;;35.35;39.81;100200.22;5095758;28;8895;-59
2023/09/07 11:19:39;;;;;;;;;9.00;9.00;;;;;36.08;38.83;100188.50;5095062;28;8853;-59
2023/09/07 11:22:07;;;;;;;;;9.40;9.20;;;;;36.86;37.43;100194.03;5095808;28;8841;-60
2023/09/07 11:24:35;;;;;;;;;11.40;10.60;;;;;37.46;36.48;100185.28;5095101;28;8853;-60
2023/09/07 11:27:03;;;;;;;;;10.00;9.60;;;;;37.79;36.29;100188.03;5096033;28;8858;-59
2023/09/07 11:29:32;;;;;;;;;11.00;10.00;;;;;38.17;36.13;100183.47;5094060;28;8840;-60
2023/09/07 11:32:00;;;;;;;;;10.20;10.20;;;;;38.58;35.73;100193.00;5094301;28;8883;-60
2023/09/07 11:34:28;;;;;;;;;9.00;8.20;;;;;38.92;34.83;100191.72;5094752;28;8853;-60
2023/09/07 11:36:56;;;;;;;;;10.60;10.00;;;;;39.08;34.66;100190.38;5096043;28;8828;-60